Time;durP1;ratioP1;P1;durP2;ratioP2;P2;SDS_P1;SDS_P2;PMS_P1;PMS_P2;Temp;Humidity;BMP_temperature;BMP_pressure;BME280_temperature;BME280_humidity;BME280_pressure;Samples;Min_cycle;Max_cycle;Signal;HPM_P1;HPM_P2
2023/11/04 00:00:00;;;;;;;16.63;9.30;;;307.50;2304.00;;;;;;5049873;28;20035;-70
2023/11/04 00:02:26;;;;;;;46.22;27.83;;;307.60;2304.00;;;;;;5049809;28;20112;-68
2023/11/04 00:04:53;;;;;;;28.88;14.32;;;307.60;2304.00;;;;;;5035262;28;20033;-70
2023/11/04 00:07:19;;;;;;;18.85;11.73;;;307.70;2304.00;;;;;;5031713;28;20113;-69
2023/11/04 00:09:45;;;;;;;19.35;10.60;;;307.50;2304.00;;;;;;5049623;28;20112;-69
2023/11/04 00:12:11;;;;;;;20.98;15.57;;;307.40;2304.00;;;;;;5049988;28;20032;-70
2023/11/04 00:14:37;;;;;;;40.47;29.02;;;307.50;2304.00;;;;;;5049434;28;20032;-69
2023/11/04 00:17:03;;;;;;;33.95;23.92;;;307.50;2304.00;;;;;;5049900;28;20017;-69
2023/11/04 00:19:29;;;;;;;27.17;15.95;;;307.60;2304.00;;;;;;5049751;28;20025;-69
2023/11/04 00:21:55;;;;;;;10.80;6.78;;;307.60;2304.00;;;;;;5050647;28;20044;-70
2023/11/04 00:24:21;;;;;;;30.30;18.08;;;307.80;2304.00;;;;;;5051851;28;20025;-69
2023/11/04 00:26:46;;;;;;;22.27;15.02;;;307.80;2304.00;;;;;;5052660;28;20021;-70
2023/11/04 00:29:12;;;;;;;15.48;7.30;;;307.80;2304.00;;;;;;5051646;28;20025;-71
2023/11/04 00:31:38;;;;;;;15.02;9.68;;;307.80;2304.00;;;;;;5051986;28;20033;-75
2023/11/04 00:34:04;;;;;;;17.85;10.32;;;307.80;2304.00;;;;;;5051415;28;20047;-68
2023/11/04 00:36:32;;;;;;;13.45;7.63;;;307.80;2304.00;;;;;;5049716;28;20555;-69
2023/11/04 00:39:00;;;;;;;8.65;6.32;;;307.80;2304.00;;;;;;5036933;28;20029;-70
2023/11/04 00:41:25;;;;;;;12.75;5.72;;;307.70;2304.00;;;;;;5036217;28;20017;-68
2023/11/04 00:43:51;;;;;;;17.23;10.55;;;307.60;2304.00;;;;;;5036533;28;20078;-69
2023/11/04 00:46:17;;;;;;;19.10;11.73;;;307.40;2304.00;;;;;;5035673;28;20098;-68
2023/11/04 00:48:43;;;;;;;14.32;7.50;;;307.40;2304.00;;;;;;5049650;28;20024;-68
2023/11/04 00:51:08;;;;;;;17.95;10.63;;;307.40;2304.00;;;;;;5047858;28;20037;-69
2023/11/04 00:53:34;;;;;;;9.00;5.50;;;307.30;2304.00;;;;;;5036462;28;20471;-68
2023/11/04 00:56:00;;;;;;;9.52;4.90;;;307.20;2304.00;;;;;;5049032;28;20025;-70
2023/11/04 00:58:26;;;;;;;7.85;4.75;;;307.20;2304.00;;;;;;5049787;28;20051;-69
2023/11/04 01:00:52;;;;;;;10.32;4.60;;;307.30;2304.00;;;;;;5049519;28;20562;-69
2023/11/04 01:03:18;;;;;;;17.77;8.93;;;307.30;2304.00;;;;;;5049152;28;20087;-69
2023/11/04 01:05:44;;;;;;;16.10;8.50;;;307.40;2304.00;;;;;;5048841;28;20395;-69
2023/11/04 01:08:10;;;;;;;10.68;6.22;;;307.40;2304.00;;;;;;5048932;28;20017;-72
2023/11/04 01:10:36;;;;;;;17.77;8.85;;;307.40;2304.00;;;;;;5049305;28;20028;-69
2023/11/04 01:13:01;;;;;;;14.35;6.65;;;307.40;2304.00;;;;;;5048940;28;20475;-67
2023/11/04 01:15:27;;;;;;;11.77;5.70;;;307.20;2304.00;;;;;;5037238;28;20430;-68
2023/11/04 01:17:53;;;;;;;7.68;4.72;;;282.30;2278.40;;;;;;5028580;28;20475;-68
2023/11/04 01:20:19;;;;;;;14.55;5.97;;;282.20;2278.40;;;;;;5029773;28;20032;-65
2023/11/04 01:22:45;;;;;;;11.90;6.05;;;282.40;2278.40;;;;;;5042453;28;20075;-66
2023/11/04 01:25:11;;;;;;;8.90;4.65;;;282.50;2278.40;;;;;;5029781;28;20067;-69
2023/11/04 01:27:36;;;;;;;7.03;4.38;;;282.50;2278.40;;;;;;5030197;28;20484;-68
2023/11/04 01:30:03;;;;;;;13.90;6.78;;;307.20;2304.00;;;;;;5030853;28;20033;-67
2023/11/04 01:32:28;;;;;;;11.82;6.78;;;307.20;2304.00;;;;;;5030872;28;20041;-67
2023/11/04 01:34:54;;;;;;;13.02;7.88;;;307.30;2304.00;;;;;;5039772;28;20033;-68
2023/11/04 01:37:25;;;;;;;9.20;4.95;;;307.30;2304.00;;;;;;5046300;28;20028;-67
2023/11/04 01:39:53;;;;;;;9.07;3.85;;;307.40;2304.00;;;;;;5038350;28;20492;-68
2023/11/04 01:42:19;;;;;;;10.07;4.53;;;307.40;2304.00;;;;;;5046582;28;20455;-66
2023/11/04 01:44:45;;;;;;;10.55;4.72;;;307.30;2304.00;;;;;;5036541;28;20030;-68
2023/11/04 01:47:12;;;;;;;7.65;5.18;;;307.40;2304.00;;;;;;5041247;28;20024;-68
2023/11/04 01:49:38;;;;;;;9.77;4.10;;;282.50;2278.40;;;;;;5046234;28;20029;-66
2023/11/04 01:52:05;;;;;;;7.25;3.78;;;282.30;2278.40;;;;;;5033192;28;20037;-68
2023/11/04 01:54:33;;;;;;;5.75;3.22;;;282.20;2278.40;;;;;;5033472;28;20120;-66
2023/11/04 01:56:59;;;;;;;7.88;3.67;;;282.30;2278.40;;;;;;5040109;28;20017;-67
2023/11/04 01:59:25;;;;;;;8.45;3.45;;;282.40;2278.40;;;;;;5045803;28;20029;-68
2023/11/04 02:01:52;;;;;;;9.07;3.85;;;282.40;2278.40;;;;;;5045548;28;20030;-68
2023/11/04 02:04:17;;;;;;;5.35;2.70;;;282.40;2278.40;;;;;;5032861;28;20121;-67
2023/11/04 02:06:44;;;;;;;4.93;3.30;;;282.50;2278.40;;;;;;5045884;28;20104;-67
2023/11/04 02:09:11;;;;;;;6.57;4.15;;;282.30;2278.40;;;;;;5033017;28;20030;-68
2023/11/04 02:11:37;;;;;;;9.57;5.18;;;282.50;2278.40;;;;;;5043594;28;20026;-67
2023/11/04 02:14:04;;;;;;;5.80;2.78;;;307.30;2304.00;;;;;;5047386;28;20486;-67
2023/11/04 02:16:30;;;;;;;5.93;3.22;;;307.50;2304.00;;;;;;5042173;28;20032;-67
2023/11/04 02:18:55;;;;;;;4.00;2.33;;;307.50;2304.00;;;;;;5030910;28;20025;-67
2023/11/04 02:21:24;;;;;;;4.90;2.95;;;307.60;2304.00;;;;;;5045916;28;20127;-68
2023/11/04 02:23:50;;;;;;;10.27;3.17;;;307.70;2304.00;;;;;;5051917;28;20025;-68
2023/11/04 02:26:16;;;;;;;7.53;3.50;;;307.70;2304.00;;;;;;5037665;28;20521;-68
2023/11/04 02:28:41;;;;;;;5.80;3.72;;;307.60;2304.00;;;;;;5032603;28;20047;-69
2023/11/04 02:31:07;;;;;;;8.20;3.80;;;307.60;2304.00;;;;;;5033332;28;20464;-67
2023/11/04 02:33:34;;;;;;;6.68;2.97;;;307.60;2304.00;;;;;;5049487;28;20115;-69
2023/11/04 02:36:00;;;;;;;5.50;3.28;;;307.70;2304.00;;;;;;5048080;28;20021;-67
2023/11/04 02:38:26;;;;;;;4.18;2.55;;;307.80;2304.00;;;;;;5047790;28;20025;-66
2023/11/04 02:40:52;;;;;;;6.40;2.65;;;307.80;2304.00;;;;;;5046100;28;20108;-69
2023/11/04 02:43:17;;;;;;;5.30;3.10;;;307.90;2304.00;;;;;;5046201;28;20048;-68
2023/11/04 02:45:43;;;;;;;5.85;2.75;;;307.80;2304.00;;;;;;5045988;28;20083;-66
2023/11/04 02:48:09;;;;;;;5.95;2.30;;;307.90;2304.00;;;;;;5046919;28;20028;-66
2023/11/04 02:50:35;;;;;;;4.38;2.33;;;307.90;2304.00;;;;;;5041652;28;20029;-68
2023/11/04 02:53:00;;;;;;;4.00;2.75;;;307.90;2304.00;;;;;;5036953;28;20090;-69
2023/11/04 02:55:26;;;;;;;6.65;3.80;;;307.70;2304.00;;;;;;5051336;28;20425;-68
2023/11/04 02:57:52;;;;;;;8.63;2.95;;;307.70;2304.00;;;;;;5050961;28;20455;-69
2023/11/04 03:00:18;;;;;;;9.05;3.80;;;307.60;2304.00;;;;;;5051458;28;20032;-68
2023/11/04 03:02:44;;;;;;;3.88;2.22;;;307.60;2304.00;;;;;;5050988;28;20065;-68
2023/11/04 03:05:10;;;;;;;6.38;2.75;;;307.60;2304.00;;;;;;5051378;28;20021;-68
2023/11/04 03:07:36;;;;;;;4.32;2.30;;;307.50;2304.00;;;;;;5050996;28;20028;-67
2023/11/04 03:10:04;;;;;;;7.38;2.35;;;307.30;2304.00;;;;;;5051150;28;20036;-68
2023/11/04 03:12:30;;;;;;;9.50;2.20;;;307.30;2304.00;;;;;;5050168;28;20037;-69
2023/11/04 03:14:57;;;;;;;4.88;1.92;;;307.50;2304.00;;;;;;5051255;28;20414;-67
2023/11/04 03:17:22;;;;;;;5.75;2.42;;;307.50;2304.00;;;;;;5051088;28;20035;-68
2023/11/04 03:19:48;;;;;;;6.05;2.72;;;307.40;2304.00;;;;;;5051550;28;20021;-68
2023/11/04 03:22:14;;;;;;;4.43;1.80;;;307.30;2304.00;;;;;;5050606;28;20483;-68
2023/11/04 03:24:43;;;;;;;3.53;1.73;;;307.40;2304.00;;;;;;5040648;28;20033;-68
2023/11/04 03:27:10;;;;;;;4.63;1.88;;;307.40;2304.00;;;;;;5038495;28;20429;-68
2023/11/04 03:29:36;;;;;;;3.35;1.70;;;307.60;2304.00;;;;;;5050371;28;20061;-68
2023/11/04 03:32:02;;;;;;;4.70;1.30;;;307.60;2304.00;;;;;;5051014;28;20084;-67
2023/11/04 03:34:28;;;;;;;2.83;1.55;;;307.80;2304.00;;;;;;5050794;28;20023;-67
2023/11/04 03:36:53;;;;;;;5.10;1.88;;;307.90;2304.00;;;;;;5041349;28;20100;-68
2023/11/04 03:39:19;;;;;;;5.70;2.15;;;308.00;2304.00;;;;;;5046349;28;20056;-69
2023/11/04 03:41:45;;;;;;;7.57;1.92;;;308.10;2304.00;;;;;;5050391;28;20084;-67
2023/11/04 03:44:10;;;;;;;4.22;2.25;;;332.80;2329.60;;;;;;5050407;28;20028;-68
2023/11/04 03:46:36;;;;;;;4.35;2.55;;;332.90;2329.60;;;;;;5050412;28;20032;-67
2023/11/04 03:49:02;;;;;;;4.72;2.65;;;332.90;2329.60;;;;;;5037023;28;20029;-68
2023/11/04 03:51:28;;;;;;;7.75;2.97;;;333.00;2329.60;;;;;;5050377;28;20154;-67
2023/11/04 03:53:54;;;;;;;6.40;3.40;;;332.90;2329.60;;;;;;5047032;28;20100;-67
2023/11/04 03:56:20;;;;;;;8.25;5.18;;;333.00;2329.60;;;;;;5030141;28;20071;-68
2023/11/04 03:58:46;;;;;;;6.18;3.42;;;333.00;2329.60;;;;;;5046276;28;20036;-66
2023/11/04 04:01:12;;;;;;;7.75;3.92;;;333.00;2329.60;;;;;;5049824;28;20055;-68
2023/11/04 04:03:38;;;;;;;8.23;4.95;;;333.10;2329.60;;;;;;5050052;28;20064;-67
2023/11/04 04:06:04;;;;;;;7.35;3.00;;;333.00;2329.60;;;;;;5049645;28;20555;-67
2023/11/04 04:08:30;;;;;;;8.20;3.33;;;333.10;2329.60;;;;;;5049599;28;20025;-69
2023/11/04 04:10:56;;;;;;;7.18;3.22;;;333.20;2329.60;;;;;;5049858;28;20364;-67
2023/11/04 04:13:21;;;;;;;5.72;3.53;;;333.30;2329.60;;;;;;5046766;28;20076;-66
2023/11/04 04:15:47;;;;;;;5.90;3.60;;;333.30;2329.60;;;;;;5039418;28;20029;-68
2023/11/04 04:18:13;;;;;;;5.68;3.15;;;333.10;2329.60;;;;;;5050033;28;20036;-68
2023/11/04 04:20:39;;;;;;;4.63;2.83;;;333.00;2329.60;;;;;;5040624;28;20088;-67
2023/11/04 04:23:04;;;;;;;9.05;3.03;;;332.90;2329.60;;;;;;5045555;28;20151;-67
2023/11/04 04:25:31;;;;;;;7.75;3.10;;;332.90;2329.60;;;;;;5045117;28;20033;-69
2023/11/04 04:27:56;;;;;;;4.38;2.40;;;332.90;2329.60;;;;;;5027254;28;20476;-67
2023/11/04 04:30:22;;;;;;;4.70;2.53;;;333.10;2329.60;;;;;;5049254;28;20043;-68
2023/11/04 04:32:48;;;;;;;5.22;2.85;;;333.10;2329.60;;;;;;5049779;28;20077;-68
2023/11/04 04:35:14;;;;;;;10.10;2.80;;;333.20;2329.60;;;;;;5050059;28;20048;-66
2023/11/04 04:37:40;;;;;;;6.40;3.05;;;333.10;2329.60;;;;;;5048958;28;20463;-68
2023/11/04 04:40:06;;;;;;;7.38;2.97;;;333.00;2329.60;;;;;;5050175;28;20467;-67
2023/11/04 04:42:32;;;;;;;4.75;2.38;;;333.00;2329.60;;;;;;5049805;28;20028;-68
2023/11/04 04:44:58;;;;;;;5.63;3.80;;;333.10;2329.60;;;;;;5049429;28;20029;-67
2023/11/04 04:47:24;;;;;;;4.53;2.30;;;333.10;2329.60;;;;;;5047448;28;20505;-66
2023/11/04 04:49:49;;;;;;;3.53;2.10;;;333.10;2329.60;;;;;;5038814;28;20021;-67
2023/11/04 04:52:18;;;;;;;4.88;2.17;;;332.90;2329.60;;;;;;5049190;28;20040;-67
2023/11/04 04:54:43;;;;;;;5.93;3.50;;;333.00;2329.60;;;;;;5049484;28;20032;-67
2023/11/04 04:57:09;;;;;;;3.22;1.90;;;332.90;2329.60;;;;;;5045617;28;20026;-67
2023/11/04 04:59:35;;;;;;;3.28;1.80;;;332.90;2329.60;;;;;;5026179;28;20033;-68
2023/11/04 05:02:03;;;;;;;4.03;1.80;;;332.80;2329.60;;;;;;5045188;28;20027;-69
2023/11/04 05:04:29;;;;;;;5.30;2.40;;;308.10;2304.00;;;;;;5049669;28;20052;-69
2023/11/04 05:06:56;;;;;;;3.50;1.95;;;308.10;2304.00;;;;;;5050993;28;20348;-69
2023/11/04 05:09:21;;;;;;;5.18;2.08;;;308.10;2304.00;;;;;;5053495;28;20025;-69
2023/11/04 05:11:47;;;;;;;3.50;1.60;;;308.10;2304.00;;;;;;5052633;28;20092;-69
2023/11/04 05:14:13;;;;;;;4.30;1.65;;;308.10;2304.00;;;;;;5044490;28;20051;-68
2023/11/04 05:16:39;;;;;;;6.07;2.03;;;332.90;2329.60;;;;;;5055526;28;20021;-71
2023/11/04 05:19:05;;;;;;;3.85;1.70;;;308.10;2304.00;;;;;;5054243;28;20071;-68
2023/11/04 05:21:30;;;;;;;3.38;1.83;;;308.00;2304.00;;;;;;5049113;28;20609;-70
2023/11/04 05:23:56;;;;;;;3.10;1.80;;;307.90;2304.00;;;;;;5042906;28;20021;-68
2023/11/04 05:26:22;;;;;;;4.15;2.20;;;308.00;2304.00;;;;;;5053420;28;20041;-68
2023/11/04 05:28:48;;;;;;;3.30;1.60;;;308.00;2304.00;;;;;;5053373;28;20051;-69
2023/11/04 05:31:14;;;;;;;5.68;2.10;;;308.10;2304.00;;;;;;5052292;28;20045;-67
2023/11/04 05:33:41;;;;;;;4.72;1.90;;;308.10;2304.00;;;;;;5043096;28;20065;-68
2023/11/04 05:36:07;;;;;;;3.58;1.80;;;332.80;2329.60;;;;;;5032999;28;20034;-68
2023/11/04 05:38:33;;;;;;;4.93;2.13;;;333.10;2329.60;;;;;;5052715;28;20462;-68
2023/11/04 05:41:00;;;;;;;7.35;2.47;;;333.20;2329.60;;;;;;5052752;28;20034;-68
2023/11/04 05:43:26;;;;;;;4.65;2.13;;;333.20;2329.60;;;;;;5052836;28;20106;-68
2023/11/04 05:45:52;;;;;;;5.30;2.63;;;332.90;2329.60;;;;;;5052462;28;20045;-68
2023/11/04 05:48:21;;;;;;;6.40;2.78;;;332.80;2329.60;;;;;;5053083;28;20131;-68
2023/11/04 05:50:47;;;;;;;7.60;2.53;;;308.10;2304.00;;;;;;5048925;28;20056;-68
2023/11/04 05:53:14;;;;;;;5.15;2.78;;;308.00;2304.00;;;;;;5039383;28;20040;-68
2023/11/04 05:55:40;;;;;;;6.45;3.13;;;308.00;2304.00;;;;;;5052602;28;20025;-67
2023/11/04 05:58:06;;;;;;;7.40;3.85;;;308.00;2304.00;;;;;;5052361;28;20025;-67
2023/11/04 06:00:32;;;;;;;6.05;3.33;;;307.90;2304.00;;;;;;5052152;28;20086;-68
2023/11/04 06:02:58;;;;;;;6.82;3.97;;;307.90;2304.00;;;;;;5052254;28;20021;-67
2023/11/04 06:05:24;;;;;;;7.25;3.58;;;307.80;2304.00;;;;;;5051958;28;20021;-67
2023/11/04 06:07:50;;;;;;;7.15;3.60;;;307.80;2304.00;;;;;;5051579;28;20029;-68
2023/11/04 06:10:16;;;;;;;11.23;4.45;;;307.80;2304.00;;;;;;5048375;28;20089;-67
2023/11/04 06:12:42;;;;;;;7.18;4.25;;;307.80;2304.00;;;;;;5026521;28;20049;-67
2023/11/04 06:15:09;;;;;;;9.13;3.90;;;307.70;2304.00;;;;;;5044766;28;20024;-68
2023/11/04 06:17:35;;;;;;;8.68;4.47;;;307.80;2304.00;;;;;;5052832;28;20131;-68
2023/11/04 06:20:01;;;;;;;10.38;5.25;;;307.70;2304.00;;;;;;5050828;28;20024;-68
2023/11/04 06:22:27;;;;;;;8.05;4.00;;;307.70;2304.00;;;;;;5051646;28;20044;-68
2023/11/04 06:24:52;;;;;;;8.95;4.13;;;307.80;2304.00;;;;;;5051614;28;20024;-68
2023/11/04 06:27:19;;;;;;;8.38;3.72;;;307.70;2304.00;;;;;;5052502;28;20029;-68
2023/11/04 06:29:44;;;;;;;8.85;7.05;;;307.70;2304.00;;;;;;5050877;28;20044;-67
2023/11/04 06:32:10;;;;;;;8.57;5.20;;;307.80;2304.00;;;;;;5051874;28;20479;-69
2023/11/04 06:34:36;;;;;;;9.30;5.10;;;307.70;2304.00;;;;;;5052024;28;20037;-68
2023/11/04 06:37:02;;;;;;;7.97;4.60;;;307.80;2304.00;;;;;;5051664;28;20025;-68
2023/11/04 06:39:28;;;;;;;8.73;5.38;;;307.90;2304.00;;;;;;5051523;28;20113;-67
2023/11/04 06:41:54;;;;;;;15.80;5.50;;;307.90;2304.00;;;;;;5034745;28;20475;-69
2023/11/04 06:44:20;;;;;;;7.57;4.63;;;307.90;2304.00;;;;;;5044467;28;20029;-70
2023/11/04 06:46:48;;;;;;;9.43;4.78;;;307.90;2304.00;;;;;;5051789;28;20027;-68
2023/11/04 06:49:17;;;;;;;9.13;4.95;;;308.10;2304.00;;;;;;5051634;28;20020;-68
2023/11/04 06:51:42;;;;;;;7.32;4.15;;;332.80;2329.60;;;;;;5051961;28;20025;-67
2023/11/04 06:54:08;;;;;;;7.35;3.92;;;332.90;2329.60;;;;;;5038964;28;20028;-68
2023/11/04 06:56:34;;;;;;;5.88;4.00;;;333.10;2329.60;;;;;;5051693;28;20033;-69
2023/11/04 06:59:00;;;;;;;7.85;4.30;;;333.10;2329.60;;;;;;5051334;28;20024;-69
2023/11/04 07:01:29;;;;;;;6.20;4.00;;;333.10;2329.60;;;;;;5051386;28;20036;-68
2023/11/04 07:03:55;;;;;;;6.13;4.05;;;333.30;2329.60;;;;;;5050743;28;20025;-68
2023/11/04 07:06:20;;;;;;;9.52;3.88;;;333.30;2329.60;;;;;;5051248;28;20025;-68
2023/11/04 07:08:47;;;;;;;5.55;3.65;;;333.30;2329.60;;;;;;5051456;28;20391;-68
2023/11/04 07:11:13;;;;;;;8.32;4.78;;;333.40;2329.60;;;;;;5051256;28;20028;-69
2023/11/04 07:13:40;;;;;;;6.60;3.80;;;333.40;2329.60;;;;;;5050678;28;20029;-69
2023/11/04 07:16:08;;;;;;;8.40;3.72;;;333.50;2329.60;;;;;;5051701;28;20024;-67
2023/11/04 07:18:33;;;;;;;8.23;3.78;;;333.50;2329.60;;;;;;5034803;28;20034;-68
2023/11/04 07:21:00;;;;;;;7.85;4.30;;;333.50;2329.60;;;;;;5038086;28;20442;-68
2023/11/04 07:23:28;;;;;;;14.05;5.03;;;333.50;2329.60;;;;;;5050905;28;20049;-68
2023/11/04 07:25:54;;;;;;;11.63;10.23;;;333.60;2329.60;;;;;;5039123;28;20371;-68
2023/11/04 07:28:22;;;;;;;10.82;4.28;;;333.60;2329.60;;;;;;5048756;28;20024;-69
2023/11/04 07:30:49;;;;;;;7.22;3.42;;;358.40;2329.60;;;;;;5050963;28;20032;-68
2023/11/04 07:33:15;;;;;;;9.48;5.03;;;358.50;2329.60;;;;;;5049786;28;20041;-68
2023/11/04 07:35:41;;;;;;;7.97;4.22;;;358.70;2329.60;;;;;;5038537;28;20075;-68
2023/11/04 07:38:08;;;;;;;8.73;4.05;;;358.80;2329.60;;;;;;5049615;28;20020;-68
2023/11/04 07:40:34;;;;;;;6.78;3.58;;;359.00;2329.60;;;;;;5050416;28;20471;-68
2023/11/04 07:43:00;;;;;;;9.07;3.45;;;359.20;2329.60;;;;;;5050447;28;20063;-68
2023/11/04 07:45:27;;;;;;;4.32;2.70;;;384.10;2329.60;;;;;;5050447;28;20029;-67
2023/11/04 07:47:52;;;;;;;5.22;3.53;;;384.30;2329.60;;;;;;5050460;28;20025;-68
2023/11/04 07:50:18;;;;;;;4.78;2.70;;;384.00;2329.60;;;;;;5050451;28;20024;-68
2023/11/04 07:52:44;;;;;;;10.00;2.85;;;384.30;2329.60;;;;;;5034568;28;20094;-68
2023/11/04 07:55:10;;;;;;;6.47;3.78;;;384.10;2329.60;;;;;;5044929;28;20048;-69
2023/11/04 07:57:37;;;;;;;9.38;3.80;;;384.30;2329.60;;;;;;5050504;28;20029;-68
2023/11/04 08:00:07;;;;;;;10.98;4.50;;;384.30;2329.60;;;;;;5049726;28;20116;-68
2023/11/04 08:02:42;;;;;;;8.32;5.30;;;384.40;2329.60;;;;;;5050278;28;20029;-69
2023/11/04 08:05:10;;;;;;;10.63;6.40;;;384.70;2329.60;;;;;;5050248;28;20371;-68
2023/11/04 08:07:37;;;;;;;8.38;5.07;;;384.70;2329.60;;;;;;5050586;28;20556;-69
2023/11/04 08:10:04;;;;;;;13.35;4.63;;;384.80;2329.60;;;;;;5049794;28;20025;-68
2023/11/04 08:12:31;;;;;;;5.38;2.90;;;384.40;2329.60;;;;;;5050124;28;20049;-68
2023/11/04 08:14:57;;;;;;;5.93;3.33;;;384.30;2329.60;;;;;;5050186;28;20021;-69
2023/11/04 08:17:23;;;;;;;7.60;3.72;;;384.20;2329.60;;;;;;5044471;28;20021;-68
2023/11/04 08:19:48;;;;;;;8.50;3.88;;;384.10;2329.60;;;;;;5030363;28;20017;-67
2023/11/04 08:22:15;;;;;;;7.50;3.08;;;384.00;2329.60;;;;;;5038215;28;20079;-67
2023/11/04 08:24:42;;;;;;;6.85;3.67;;;359.20;2329.60;;;;;;5034608;28;20072;-67
2023/11/04 08:27:08;;;;;;;8.05;4.80;;;359.20;2329.60;;;;;;5030500;28;20021;-69
2023/11/04 08:29:34;;;;;;;9.27;4.90;;;359.20;2329.60;;;;;;5024524;28;20092;-66
2023/11/04 08:32:00;;;;;;;11.98;8.55;;;359.00;2329.60;;;;;;5026781;28;20025;-66
2023/11/04 08:34:27;;;;;;;11.27;4.57;;;359.00;2329.60;;;;;;5029691;28;20025;-67
2023/11/04 08:36:52;;;;;;;10.15;4.20;;;358.90;2329.60;;;;;;5029604;28;20026;-66
2023/11/04 08:39:18;;;;;;;8.43;4.35;;;358.90;2329.60;;;;;;5029602;28;20029;-67
2023/11/04 08:41:44;;;;;;;7.75;3.72;;;358.80;2329.60;;;;;;5032903;28;20021;-66
2023/11/04 08:44:14;;;;;;;10.82;5.15;;;358.80;2329.60;;;;;;5029225;28;20216;-69
2023/11/04 08:46:40;;;;;;;7.50;5.38;;;358.60;2329.60;;;;;;5044285;28;20269;-67
2023/11/04 08:49:06;;;;;;;11.07;5.53;;;358.60;2329.60;;;;;;5049826;28;20483;-67
2023/11/04 08:51:36;;;;;;;7.68;5.82;;;358.70;2329.60;;;;;;5030216;28;20048;-69
2023/11/04 08:54:02;;;;;;;7.93;5.18;;;358.50;2329.60;;;;;;5029225;28;20091;-67
2023/11/04 08:56:28;;;;;;;12.38;4.78;;;333.70;2329.60;;;;;;5029713;28;20048;-66
2023/11/04 08:58:53;;;;;;;10.90;5.95;;;358.40;2329.60;;;;;;5042371;28;20463;-67
2023/11/04 09:01:21;;;;;;;7.30;5.18;;;333.70;2329.60;;;;;;5029662;28;20495;-67
2023/11/04 09:03:47;;;;;;;9.82;4.38;;;333.70;2329.60;;;;;;5023957;28;20061;-66
2023/11/04 09:06:12;;;;;;;10.13;6.22;;;333.70;2329.60;;;;;;5038455;28;20110;-68
2023/11/04 09:08:38;;;;;;;8.35;5.30;;;358.40;2329.60;;;;;;5046555;28;20029;-71
2023/11/04 09:11:04;;;;;;;17.15;11.80;;;358.40;2329.60;;;;;;5036425;28;20031;-69
2023/11/04 09:13:30;;;;;;;21.60;13.68;;;358.50;2329.60;;;;;;5040932;28;20627;-70
2023/11/04 09:15:55;;;;;;;17.98;11.10;;;358.50;2329.60;;;;;;5039652;28;20029;-69
2023/11/04 09:18:21;;;;;;;17.45;14.45;;;358.50;2329.60;;;;;;5039465;28;20041;-70
2023/11/04 09:20:47;;;;;;;11.05;7.72;;;358.60;2329.60;;;;;;5042729;28;20046;-71
2023/11/04 09:23:13;;;;;;;11.32;6.30;;;358.70;2329.60;;;;;;5034226;28;20045;-71
2023/11/04 09:25:38;;;;;;;10.38;6.60;;;358.60;2329.60;;;;;;5033387;28;20021;-64
2023/11/04 09:28:04;;;;;;;6.82;4.22;;;358.60;2329.60;;;;;;5034832;28;20033;-65
2023/11/04 09:30:30;;;;;;;5.53;3.08;;;358.50;2329.60;;;;;;5028987;28;20104;-64
2023/11/04 09:32:56;;;;;;;3.97;2.75;;;358.40;2329.60;;;;;;5023015;28;20080;-65
2023/11/04 09:35:22;;;;;;;7.82;4.15;;;358.40;2329.60;;;;;;5029136;28;20105;-66
2023/11/04 09:37:48;;;;;;;7.72;4.60;;;358.50;2329.60;;;;;;5029202;28;20029;-64
2023/11/04 09:40:14;;;;;;;9.85;5.95;;;358.60;2329.60;;;;;;5033117;28;20034;-65
2023/11/04 09:42:41;;;;;;;8.30;6.00;;;358.70;2329.60;;;;;;5033466;28;20079;-65
2023/11/04 09:45:08;;;;;;;13.20;5.97;;;358.80;2329.60;;;;;;5043065;28;20025;-68
2023/11/04 09:47:34;;;;;;;12.02;8.07;;;358.70;2329.60;;;;;;5040200;28;20025;-65
2023/11/04 09:50:00;;;;;;;26.15;20.80;;;358.70;2329.60;;;;;;5032999;28;20028;-65
2023/11/04 09:52:30;;;;;;;29.75;18.17;;;358.70;2329.60;;;;;;5042179;28;20475;-65
2023/11/04 09:54:59;;;;;;;40.47;26.35;;;358.70;2329.60;;;;;;5029985;28;20471;-65
2023/11/04 09:57:26;;;;;;;45.53;31.08;;;358.60;2329.60;;;;;;5029158;28;20375;-65
2023/11/04 09:59:52;;;;;;;34.33;24.13;;;358.60;2329.60;;;;;;5046960;28;20075;-65
2023/11/04 10:02:18;;;;;;;58.20;46.78;;;358.60;2329.60;;;;;;5052668;28;20475;-65
2023/11/04 10:04:43;;;;;;;22.40;15.57;;;358.60;2329.60;;;;;;5035093;28;20049;-65
2023/11/04 10:07:09;;;;;;;23.05;16.13;;;358.60;2329.60;;;;;;5046035;28;20382;-65
2023/11/04 10:09:35;;;;;;;36.78;27.88;;;333.70;2329.60;;;;;;5051919;28;20013;-72
2023/11/04 10:12:03;;;;;;;26.98;23.63;;;358.50;2329.60;;;;;;5052249;28;20423;-72
2023/11/04 10:14:32;;;;;;;27.20;19.45;;;358.50;2329.60;;;;;;5048044;28;20718;-71
2023/11/04 10:16:58;;;;;;;25.33;20.98;;;358.80;2329.60;;;;;;5051880;28;20025;-70
2023/11/04 10:19:24;;;;;;;32.17;24.52;;;359.00;2329.60;;;;;;5052227;28;20025;-71
2023/11/04 10:21:51;;;;;;;14.18;9.35;;;359.20;2329.60;;;;;;5051506;28;20094;-71
2023/11/04 10:24:17;;;;;;;48.05;34.72;;;359.30;2329.60;;;;;;5047661;28;20025;-69
2023/11/04 10:26:43;;;;;;;173.68;122.05;;;384.10;2329.60;;;;;;5042071;28;20037;-71
2023/11/04 10:29:10;;;;;;;86.10;69.13;;;384.30;2329.60;;;;;;5046630;28;20476;-71
2023/11/04 10:31:36;;;;;;;58.55;52.25;;;384.40;2329.60;;;;;;5043861;28;20433;-70
2023/11/04 10:34:04;;;;;;;34.92;30.02;;;384.60;2329.60;;;;;;5051151;28;20082;-71
2023/11/04 10:36:32;;;;;;;51.60;45.35;;;384.80;2329.60;;;;;;5031581;28;20026;-70
2023/11/04 10:39:03;;;;;;;22.65;18.50;;;384.90;2329.60;;;;;;5023066;28;20336;-71
2023/11/04 10:41:48;;;;;;;16.02;11.07;;;384.90;2329.60;;;;;;5045817;28;20056;-71
2023/11/04 10:44:28;;;;;;;8.18;5.45;;;409.70;2355.20;;;;;;5031395;28;20475;-71
2023/11/04 10:46:57;;;;;;;6.10;3.90;;;409.90;2355.20;;;;;;5022877;28;20034;-70
2023/11/04 10:49:39;;;;;;;11.27;5.25;;;409.90;2355.20;;;;;;5035612;28;20559;-71
2023/11/04 10:52:13;;;;;;;23.05;15.43;;;409.90;2355.20;;;;;;5041146;28;20065;-72
2023/11/04 10:54:46;;;;;;;26.73;19.17;;;409.70;2355.20;;;;;;5046858;28;20041;-70
2023/11/04 10:57:40;;;;;;;25.02;18.88;;;409.60;2355.20;;;;;;5032346;28;20034;-71
2023/11/04 11:00:13;;;;;;;26.70;18.95;;;384.90;2329.60;;;;;;5033198;28;20029;-71
2023/11/04 11:02:43;;;;;;;21.38;15.38;;;384.70;2329.60;;;;;;5048646;28;20025;-71
2023/11/04 11:05:14;;;;;;;17.48;13.48;;;384.50;2329.60;;;;;;5049361;28;20060;-69
2023/11/04 11:07:44;;;;;;;18.98;15.32;;;384.50;2329.60;;;;;;5022081;28;20259;-71
2023/11/04 11:10:19;;;;;;;16.60;12.27;;;384.60;2329.60;;;;;;5035124;28;20380;-70
2023/11/04 11:13:05;;;;;;;18.58;14.45;;;384.70;2329.60;;;;;;5044776;28;20041;-75
2023/11/04 11:15:33;;;;;;;15.80;9.43;;;384.70;2329.60;;;;;;5039022;28;20029;-69
2023/11/04 11:17:59;;;;;;;14.75;9.45;;;384.70;2329.60;;;;;;5045635;28;20032;-70
2023/11/04 11:20:27;;;;;;;16.30;10.32;;;384.40;2329.60;;;;;;5034022;28;20480;-71
2023/11/04 11:22:57;;;;;;;18.63;13.07;;;384.10;2329.60;;;;;;5044780;28;20039;-70
2023/11/04 11:25:36;;;;;;;25.38;18.15;;;384.00;2329.60;;;;;;5035566;28;20036;-70
2023/11/04 11:28:04;;;;;;;19.23;13.38;;;359.20;2329.60;;;;;;5032479;28;20037;-70
2023/11/04 11:30:39;;;;;;;16.33;13.05;;;359.10;2329.60;;;;;;5035751;28;20671;-72
2023/11/04 11:33:07;;;;;;;42.08;28.08;;;359.20;2329.60;;;;;;5031900;28;20033;-70
2023/11/04 11:35:56;;;;;;;30.40;21.40;;;359.30;2329.60;;;;;;5034875;28;20036;-72
2023/11/04 11:38:22;;;;;;;17.33;13.55;;;384.20;2329.60;;;;;;5029579;28;20044;-71
2023/11/04 11:40:47;;;;;;;18.70;13.18;;;384.30;2329.60;;;;;;5038398;28;20468;-70
2023/11/04 11:43:13;;;;;;;20.55;13.10;;;384.40;2329.60;;;;;;5038027;28;20013;-71
2023/11/04 11:45:39;;;;;;;16.23;12.38;;;384.50;2329.60;;;;;;5047704;28;20033;-71
2023/11/04 11:48:05;;;;;;;20.90;12.77;;;384.60;2329.60;;;;;;5039263;28;20107;-68
2023/11/04 11:50:31;;;;;;;18.23;13.45;;;384.70;2329.60;;;;;;5048462;28;20029;-72
2023/11/04 11:52:57;;;;;;;16.27;13.93;;;384.70;2329.60;;;;;;5045832;28;20512;-73
2023/11/04 11:55:23;;;;;;;21.40;13.80;;;384.40;2329.60;;;;;;5047866;28;20029;-71
2023/11/04 11:57:51;;;;;;;19.73;11.55;;;384.30;2329.60;;;;;;5046668;28;20071;-69
2023/11/04 12:00:17;;;;;;;23.30;13.63;;;384.30;2329.60;;;;;;5048448;28;20360;-71
2023/11/04 12:02:44;;;;;;;11.02;6.68;;;384.40;2329.60;;;;;;5048101;28;20028;-71
2023/11/04 12:05:10;;;;;;;24.65;15.75;;;384.50;2329.60;;;;;;5048589;28;20112;-71
2023/11/04 12:07:36;;;;;;;23.30;15.55;;;384.60;2329.60;;;;;;5030436;28;20143;-71